Time;durP1;ratioP1;P1;durP2;ratioP2;P2;SDS_P1;SDS_P2;PMS_P1;PMS_P2;Temp;Humidity;BMP_temperature;BMP_pressure;BME280_temperature;BME280_humidity;BME280_pressure;Samples;Min_cycle;Max_cycle;Signal;HPM_P1;HPM_P2
2022/01/16 00:00:28;;;;;;;0.70;0.70;;;;;;;;;;1824226;77;26298;-34
2022/01/16 00:05:31;;;;;;;0.75;0.75;;;;;;;;;;1836987;77;26369;-27
2022/01/16 00:07:58;;;;;;;0.70;0.70;;;;;;;;;;1826102;77;26349;-29
2022/01/16 00:10:27;;;;;;;0.70;0.70;;;;;;;;;;1817494;77;27463;-29
2022/01/16 00:12:58;;;;;;;0.53;0.53;;;;;;;;;;1825773;77;27002;-33
2022/01/16 00:15:23;;;;;;;0.57;0.57;;;;;;;;;;1844879;77;26373;-30
2022/01/16 00:18:08;;;;;;;0.60;0.60;;;;;;;;;;1839033;77;26272;-32
2022/01/16 00:20:23;;;;;;;0.60;0.60;;;;;;;;;;1836256;77;26276;-31
2022/01/16 00:22:51;;;;;;;0.70;0.70;;;;;;;;;;1829612;77;26260;-27
2022/01/16 00:25:19;;;;;;;0.70;0.70;;;;;;;;;;1827167;77;26290;-27
2022/01/16 00:27:46;;;;;;;0.53;0.53;;;;;;;;;;1845008;77;26299;-34
2022/01/16 00:30:14;;;;;;;0.65;0.65;;;;;;;;;;1824211;77;26220;-31
2022/01/16 00:32:42;;;;;;;0.68;0.60;;;;;;;;;;1837992;77;26303;-29
2022/01/16 00:35:11;;;;;;;0.40;0.40;;;;;;;;;;1822439;77;26292;-29
2022/01/16 00:37:41;;;;;;;0.98;0.60;;;;;;;;;;1823854;77;26396;-29
2022/01/16 00:40:10;;;;;;;0.70;0.70;;;;;;;;;;1818912;77;26740;-33
2022/01/16 00:42:38;;;;;;;0.60;0.60;;;;;;;;;;1821369;77;26646;-29
2022/01/16 00:45:06;;;;;;;0.50;0.50;;;;;;;;;;1832029;77;27038;-29
2022/01/16 00:47:34;;;;;;;0.50;0.50;;;;;;;;;;1847315;76;26737;-34
2022/01/16 00:50:01;;;;;;;0.47;0.47;;;;;;;;;;1849451;76;26245;-31
2022/01/16 00:52:29;;;;;;;0.57;0.57;;;;;;;;;;1848802;76;26262;-30
2022/01/16 00:55:02;;;;;;;0.55;0.50;;;;;;;;;;1852643;76;26292;-28
2022/01/16 00:57:27;;;;;;;0.50;0.50;;;;;;;;;;1844107;76;26986;-28
2022/01/16 00:59:54;;;;;;;0.60;0.60;;;;;;;;;;1844034;76;26285;-28
2022/01/16 01:02:23;;;;;;;0.57;0.57;;;;;;;;;;1843290;76;26323;-33
2022/01/16 01:04:50;;;;;;;0.50;0.50;;;;;;;;;;1838759;76;26300;-30
2022/01/16 01:07:18;;;;;;;0.60;0.60;;;;;;;;;;1835833;76;26243;-29
2022/01/16 01:09:45;;;;;;;0.60;0.60;;;;;;;;;;1838809;76;26347;-28
2022/01/16 01:12:24;;;;;;;0.60;0.60;;;;;;;;;;1835025;76;26343;-33
2022/01/16 01:15:03;;;;;;;0.57;0.57;;;;;;;;;;1827606;76;26799;-31
2022/01/16 01:17:20;;;;;;;0.50;0.50;;;;;;;;;;1831616;76;26737;-32
2022/01/16 01:19:39;;;;;;;0.50;0.50;;;;;;;;;;1831839;76;26324;-29
2022/01/16 01:22:07;;;;;;;0.68;0.68;;;;;;;;;;1839258;76;26815;-33
2022/01/16 01:24:35;;;;;;;0.57;0.57;;;;;;;;;;1835979;76;26285;-30
2022/01/16 01:27:17;;;;;;;0.85;0.60;;;;;;;;;;1827409;76;26285;-29
2022/01/16 01:29:32;;;;;;;0.68;0.68;;;;;;;;;;1832166;76;26688;-28
2022/01/16 01:32:01;;;;;;;0.65;0.65;;;;;;;;;;1842926;76;26288;-27
2022/01/16 01:34:30;;;;;;;0.50;0.50;;;;;;;;;;1844666;76;26385;-32
2022/01/16 01:36:57;;;;;;;0.50;0.50;;;;;;;;;;1842098;76;26740;-28
2022/01/16 01:39:25;;;;;;;0.50;0.50;;;;;;;;;;1840265;76;26779;-29
2022/01/16 01:42:04;;;;;;;0.50;0.50;;;;;;;;;;1848249;76;26194;-29
2022/01/16 01:52:38;;;;;;;0.60;0.60;;;;;;;;;;1848163;76;26259;-29
2022/01/16 01:55:05;;;;;;;0.60;0.60;;;;;;;;;;1836536;76;26218;-34
2022/01/16 01:57:33;;;;;;;0.72;0.72;;;;;;;;;;1846288;76;26776;-30
2022/01/16 02:00:00;;;;;;;0.60;0.60;;;;;;;;;;1843330;76;26654;-36
2022/01/16 02:02:34;;;;;;;0.40;0.40;;;;;;;;;;1830434;76;26257;-29
2022/01/16 02:04:57;;;;;;;0.60;0.60;;;;;;;;;;1852499;76;26206;-29
2022/01/16 02:07:24;;;;;;;0.60;0.60;;;;;;;;;;1843544;76;26335;-30
2022/01/16 02:09:51;;;;;;;0.70;0.70;;;;;;;;;;1847270;76;26288;-35
2022/01/16 02:12:18;;;;;;;0.57;0.57;;;;;;;;;;1841519;76;26249;-29
2022/01/16 02:14:59;;;;;;;0.70;0.70;;;;;;;;;;1837812;76;26340;-31
2022/01/16 02:28:21;;;;;;;0.60;0.60;;;;;;;;;;1845450;76;26733;-36
2022/01/16 02:31:01;;;;;;;0.60;0.60;;;;;;;;;;1847574;76;26319;-32
2022/01/16 02:36:32;;;;;;;0.55;0.55;;;;;;;;;;1845373;76;26312;-34
2022/01/16 02:39:05;;;;;;;0.70;0.70;;;;;;;;;;1846799;76;26376;-33
2022/01/16 02:41:31;;;;;;;0.50;0.50;;;;;;;;;;1848403;76;26351;-30
2022/01/16 02:43:59;;;;;;;0.60;0.60;;;;;;;;;;1833761;76;26330;-34
2022/01/16 02:48:55;;;;;;;0.60;0.60;;;;;;;;;;1844482;76;27541;-30
2022/01/16 02:51:24;;;;;;;0.70;0.70;;;;;;;;;;1844258;76;26732;-28
2022/01/16 02:53:52;;;;;;;0.60;0.60;;;;;;;;;;1846644;76;26297;-31
2022/01/16 02:56:20;;;;;;;0.50;0.50;;;;;;;;;;1847845;76;26262;-30
2022/01/16 02:58:48;;;;;;;0.50;0.50;;;;;;;;;;1846151;76;26289;-28
2022/01/16 03:01:15;;;;;;;0.60;0.60;;;;;;;;;;1841225;76;26669;-35
2022/01/16 03:03:43;;;;;;;0.70;0.70;;;;;;;;;;1846751;76;26265;-32
2022/01/16 03:06:10;;;;;;;0.70;0.70;;;;;;;;;;1849219;76;26297;-30
2022/01/16 03:08:38;;;;;;;0.60;0.60;;;;;;;;;;1852643;76;26272;-28
2022/01/16 03:11:50;;;;;;;0.72;0.72;;;;;;;;;;1859182;76;26270;-33
2022/01/16 03:13:34;;;;;;;0.78;0.50;;;;;;;;;;1836426;76;26358;-30
2022/01/16 03:16:02;;;;;;;0.60;0.60;;;;;;;;;;1843923;76;26740;-29
2022/01/16 03:23:46;;;;;;;0.80;0.80;;;;;;;;;;1843092;76;26327;-30
2022/01/16 03:26:14;;;;;;;0.80;0.80;;;;;;;;;;1830751;76;26688;-35
2022/01/16 03:28:41;;;;;;;0.78;0.78;;;;;;;;;;1843802;76;26237;-28
2022/01/16 03:31:08;;;;;;;0.98;0.98;;;;;;;;;;1848745;76;26330;-32
2022/01/16 03:33:36;;;;;;;0.80;0.80;;;;;;;;;;1846318;76;26269;-30
2022/01/16 03:36:03;;;;;;;0.90;0.90;;;;;;;;;;1853675;76;26234;-34
2022/01/16 03:38:30;;;;;;;0.82;0.82;;;;;;;;;;1848543;76;26257;-28
2022/01/16 03:40:58;;;;;;;0.70;0.70;;;;;;;;;;1842655;76;26202;-28
2022/01/16 03:43:25;;;;;;;0.80;0.80;;;;;;;;;;1847646;76;26347;-29
2022/01/16 03:45:52;;;;;;;0.70;0.70;;;;;;;;;;1846000;76;26395;-28
2022/01/16 03:48:19;;;;;;;0.78;0.78;;;;;;;;;;1838673;76;26380;-33
2022/01/16 03:50:47;;;;;;;0.80;0.80;;;;;;;;;;1852840;76;26265;-28
2022/01/16 03:53:16;;;;;;;0.80;0.80;;;;;;;;;;1849481;76;26248;-33
2022/01/16 03:55:43;;;;;;;0.80;0.80;;;;;;;;;;1827734;76;26300;-28
2022/01/16 03:58:10;;;;;;;0.80;0.80;;;;;;;;;;1844497;76;26363;-31
2022/01/16 04:00:38;;;;;;;0.78;0.72;;;;;;;;;;1842145;76;26292;-35
2022/01/16 04:03:05;;;;;;;0.70;0.70;;;;;;;;;;1843907;76;26384;-33
2022/01/16 04:05:33;;;;;;;0.70;0.70;;;;;;;;;;1848832;76;26253;-30
2022/01/16 04:08:02;;;;;;;0.80;0.80;;;;;;;;;;1845714;76;26222;-29
2022/01/16 04:10:30;;;;;;;0.80;0.80;;;;;;;;;;1839415;76;26382;-28
2022/01/16 04:12:57;;;;;;;1.27;0.85;;;;;;;;;;1846645;76;26285;-30
2022/01/16 04:15:31;;;;;;;0.70;0.70;;;;;;;;;;1847840;76;26229;-28
2022/01/16 04:17:59;;;;;;;0.72;0.72;;;;;;;;;;1849252;76;26199;-32
2022/01/16 04:20:26;;;;;;;0.85;0.85;;;;;;;;;;1848868;76;26261;-33
2022/01/16 04:22:54;;;;;;;0.80;0.80;;;;;;;;;;1844186;76;26256;-31
2022/01/16 04:25:21;;;;;;;1.57;0.90;;;;;;;;;;1848669;76;26299;-30
2022/01/16 04:27:48;;;;;;;0.60;0.60;;;;;;;;;;1849236;76;26241;-32
2022/01/16 04:30:16;;;;;;;0.90;0.90;;;;;;;;;;1849062;76;26665;-31
2022/01/16 04:32:43;;;;;;;0.80;0.80;;;;;;;;;;1872637;76;26332;-29
2022/01/16 04:35:10;;;;;;;0.72;0.72;;;;;;;;;;1845503;76;26206;-34
2022/01/16 04:37:38;;;;;;;0.80;0.80;;;;;;;;;;1850515;76;26382;-28
2022/01/16 04:40:06;;;;;;;0.60;0.60;;;;;;;;;;1850305;76;26788;-28
2022/01/16 04:45:19;;;;;;;0.70;0.70;;;;;;;;;;1845729;76;26243;-32
2022/01/16 04:47:47;;;;;;;0.50;0.50;;;;;;;;;;1839584;76;26369;-33
2022/01/16 04:50:15;;;;;;;0.90;0.90;;;;;;;;;;1843125;77;26739;-32
2022/01/16 04:52:43;;;;;;;0.80;0.80;;;;;;;;;;1825664;77;26302;-33
2022/01/16 04:55:11;;;;;;;0.65;0.65;;;;;;;;;;1757115;80;26293;-32
2022/01/16 04:57:39;;;;;;;0.60;0.60;;;;;;;;;;1779499;79;26287;-36
2022/01/16 05:00:08;;;;;;;0.95;0.90;;;;;;;;;;1792328;78;26232;-29
2022/01/16 05:02:35;;;;;;;0.80;0.80;;;;;;;;;;1788162;78;27462;-34
2022/01/16 05:05:03;;;;;;;0.62;0.62;;;;;;;;;;1803896;78;27232;-34
2022/01/16 05:07:30;;;;;;;0.70;0.70;;;;;;;;;;1798269;78;26255;-33
2022/01/16 05:09:57;;;;;;;0.90;0.90;;;;;;;;;;1765493;80;26241;-36
2022/01/16 05:12:33;;;;;;;0.70;0.70;;;;;;;;;;1796421;79;26798;-28
2022/01/16 05:17:40;;;;;;;0.70;0.70;;;;;;;;;;1785788;79;26331;-28
2022/01/16 05:20:08;;;;;;;0.55;0.55;;;;;;;;;;1789606;79;26330;-33
2022/01/16 05:22:36;;;;;;;0.70;0.70;;;;;;;;;;1786109;79;26290;-29
2022/01/16 05:25:08;;;;;;;0.88;0.88;;;;;;;;;;1793169;79;26287;-31
2022/01/16 05:27:35;;;;;;;0.60;0.60;;;;;;;;;;1783142;79;26268;-33
2022/01/16 05:30:04;;;;;;;0.80;0.80;;;;;;;;;;1795421;79;26254;-30
2022/01/16 05:32:31;;;;;;;0.72;0.72;;;;;;;;;;1791901;79;26280;-37
2022/01/16 05:34:58;;;;;;;0.70;0.70;;;;;;;;;;1797333;79;26312;-31
2022/01/16 05:37:25;;;;;;;0.70;0.70;;;;;;;;;;1784891;79;26319;-34
2022/01/16 05:39:53;;;;;;;0.70;0.70;;;;;;;;;;1801344;79;26299;-35
2022/01/16 05:42:20;;;;;;;0.60;0.60;;;;;;;;;;1785729;79;26252;-34
2022/01/16 05:44:47;;;;;;;0.70;0.70;;;;;;;;;;1782702;79;26275;-35
2022/01/16 05:47:15;;;;;;;0.65;0.65;;;;;;;;;;1800475;77;26315;-33
2022/01/16 05:49:42;;;;;;;0.50;0.50;;;;;;;;;;1825215;77;26711;-30
2022/01/16 05:52:12;;;;;;;0.65;0.65;;;;;;;;;;1823071;77;26320;-33
2022/01/16 05:54:39;;;;;;;0.50;0.50;;;;;;;;;;1820542;77;26307;-29
2022/01/16 05:57:06;;;;;;;0.72;0.60;;;;;;;;;;1822685;77;26301;-30
2022/01/16 05:59:34;;;;;;;0.93;0.60;;;;;;;;;;1823122;77;26866;-28
2022/01/16 06:02:02;;;;;;;0.60;0.60;;;;;;;;;;1826855;77;26302;-30
2022/01/16 06:04:29;;;;;;;0.60;0.60;;;;;;;;;;1831630;77;26747;-32
2022/01/16 06:06:57;;;;;;;0.60;0.60;;;;;;;;;;1823051;77;26276;-29
2022/01/16 06:09:26;;;;;;;0.60;0.60;;;;;;;;;;1826193;77;26224;-29
2022/01/16 06:11:54;;;;;;;0.93;0.68;;;;;;;;;;1820671;77;26284;-28
2022/01/16 06:14:22;;;;;;;0.50;0.50;;;;;;;;;;1825884;77;27372;-33
2022/01/16 06:16:50;;;;;;;0.50;0.50;;;;;;;;;;1822650;77;26708;-32
2022/01/16 06:19:18;;;;;;;0.60;0.60;;;;;;;;;;1827398;77;26354;-35
2022/01/16 06:21:45;;;;;;;0.68;0.68;;;;;;;;;;1826899;77;26283;-28
2022/01/16 06:24:13;;;;;;;0.60;0.60;;;;;;;;;;1825917;77;26392;-34
2022/01/16 06:26:41;;;;;;;0.50;0.50;;;;;;;;;;1826650;77;27558;-30
2022/01/16 06:29:08;;;;;;;0.72;0.68;;;;;;;;;;1825249;77;26414;-30
2022/01/16 06:31:36;;;;;;;0.47;0.47;;;;;;;;;;1826707;77;26874;-28
2022/01/16 06:34:05;;;;;;;0.57;0.57;;;;;;;;;;1826663;77;26299;-31
2022/01/16 06:36:33;;;;;;;0.60;0.60;;;;;;;;;;1827035;77;26881;-32
2022/01/16 06:39:01;;;;;;;0.65;0.65;;;;;;;;;;1826347;77;26397;-30
2022/01/16 06:41:29;;;;;;;0.70;0.70;;;;;;;;;;1825818;77;26255;-30
2022/01/16 06:43:56;;;;;;;0.50;0.50;;;;;;;;;;1820654;77;26355;-32
2022/01/16 06:46:24;;;;;;;0.40;0.40;;;;;;;;;;1819696;77;26287;-31
2022/01/16 06:48:51;;;;;;;0.75;0.70;;;;;;;;;;1821967;77;26331;-34
2022/01/16 06:51:19;;;;;;;0.42;0.42;;;;;;;;;;1821021;77;26286;-32
2022/01/16 06:53:47;;;;;;;2.10;0.68;;;;;;;;;;1817616;77;26283;-34
2022/01/16 06:56:16;;;;;;;0.50;0.50;;;;;;;;;;1820919;77;26645;-30
2022/01/16 06:58:44;;;;;;;0.50;0.50;;;;;;;;;;1821099;77;26306;-31
2022/01/16 07:01:11;;;;;;;0.50;0.50;;;;;;;;;;1809125;77;26743;-33
2022/01/16 07:03:38;;;;;;;0.75;0.60;;;;;;;;;;1814359;77;26325;-29
2022/01/16 07:06:05;;;;;;;0.37;0.37;;;;;;;;;;1817724;77;26341;-29
2022/01/16 07:08:33;;;;;;;0.40;0.40;;;;;;;;;;1818874;77;26444;-28
2022/01/16 07:11:01;;;;;;;1.22;0.50;;;;;;;;;;1802464;77;26342;-30
2022/01/16 07:13:29;;;;;;;0.50;0.50;;;;;;;;;;1820209;77;26813;-29
2022/01/16 07:15:57;;;;;;;0.50;0.50;;;;;;;;;;1821037;77;26208;-31
2022/01/16 07:18:24;;;;;;;0.35;0.35;;;;;;;;;;1820695;77;26217;-32
2022/01/16 07:20:52;;;;;;;0.40;0.40;;;;;;;;;;1807313;77;26706;-29
2022/01/16 07:23:19;;;;;;;0.60;0.60;;;;;;;;;;1818344;77;26713;-34
2022/01/16 07:25:47;;;;;;;0.60;0.60;;;;;;;;;;1820491;77;26719;-35
2022/01/16 07:28:15;;;;;;;0.30;0.30;;;;;;;;;;1820716;77;26758;-34
2022/01/16 07:30:42;;;;;;;0.42;0.42;;;;;;;;;;1821095;77;26593;-28
2022/01/16 07:33:09;;;;;;;0.40;0.40;;;;;;;;;;1820762;77;26319;-35
2022/01/16 07:35:37;;;;;;;0.30;0.30;;;;;;;;;;1813130;77;26829;-29
2022/01/16 07:38:06;;;;;;;0.40;0.40;;;;;;;;;;1821806;77;26239;-28
2022/01/16 07:40:33;;;;;;;0.35;0.35;;;;;;;;;;1820863;77;26290;-28
2022/01/16 07:43:01;;;;;;;0.42;0.42;;;;;;;;;;1817624;77;26225;-30
2022/01/16 07:45:29;;;;;;;0.40;0.40;;;;;;;;;;1819845;77;26260;-31
2022/01/16 07:47:56;;;;;;;1.15;0.30;;;;;;;;;;1820909;77;26330;-28
2022/01/16 07:50:23;;;;;;;0.40;0.40;;;;;;;;;;1820608;77;26712;-30
2022/01/16 07:52:50;;;;;;;0.40;0.40;;;;;;;;;;1819813;77;26728;-30
2022/01/16 07:55:22;;;;;;;0.23;0.23;;;;;;;;;;1825278;77;26665;-30
2022/01/16 07:57:47;;;;;;;0.42;0.42;;;;;;;;;;1802265;77;26373;-30
2022/01/16 08:00:15;;;;;;;0.30;0.30;;;;;;;;;;1817613;77;26291;-36
2022/01/16 08:02:42;;;;;;;2.20;0.60;;;;;;;;;;1809401;77;26373;-30
2022/01/16 08:05:09;;;;;;;0.35;0.20;;;;;;;;;;1821674;77;26347;-29
2022/01/16 08:07:37;;;;;;;0.20;0.20;;;;;;;;;;1829911;77;27504;-34
2022/01/16 08:10:05;;;;;;;0.35;0.35;;;;;;;;;;1820977;77;26323;-34
2022/01/16 08:12:32;;;;;;;0.30;0.30;;;;;;;;;;1820974;77;25806;-29
2022/01/16 08:15:00;;;;;;;0.90;0.50;;;;;;;;;;1820572;77;26322;-30
2022/01/16 08:17:27;;;;;;;0.30;0.30;;;;;;;;;;1820981;77;26294;-29
2022/01/16 08:19:54;;;;;;;0.20;0.20;;;;;;;;;;1820138;77;26216;-30
2022/01/16 08:22:22;;;;;;;0.37;0.37;;;;;;;;;;1818359;77;26283;-30
2022/01/16 08:24:49;;;;;;;0.30;0.30;;;;;;;;;;1820798;77;26216;-30
2022/01/16 08:27:17;;;;;;;0.40;0.40;;;;;;;;;;1822297;79;27041;-44
2022/01/16 08:29:44;;;;;;;1.05;0.40;;;;;;;;;;1813132;77;26716;-28
2022/01/16 08:32:12;;;;;;;0.23;0.23;;;;;;;;;;1814132;77;26266;-30
2022/01/16 08:34:39;;;;;;;0.80;0.30;;;;;;;;;;1818365;77;26815;-32
2022/01/16 08:37:06;;;;;;;1.37;0.40;;;;;;;;;;1808817;77;26301;-30
2022/01/16 08:39:34;;;;;;;0.72;0.30;;;;;;;;;;1815194;77;26316;-31
2022/01/16 08:42:01;;;;;;;0.30;0.30;;;;;;;;;;1815680;77;26287;-32
2022/01/16 08:44:28;;;;;;;2.00;0.40;;;;;;;;;;1819911;77;26283;-28
2022/01/16 08:46:55;;;;;;;2.25;0.50;;;;;;;;;;1804485;77;26334;-28
2022/01/16 08:49:23;;;;;;;2.45;0.40;;;;;;;;;;1807668;77;26830;-33
2022/01/16 08:51:50;;;;;;;1.17;0.35;;;;;;;;;;1803327;78;26368;-28
2022/01/16 08:54:17;;;;;;;1.90;0.30;;;;;;;;;;1797460;78;26283;-33
2022/01/16 08:56:45;;;;;;;2.02;0.62;;;;;;;;;;1804525;78;26275;-27
2022/01/16 08:59:12;;;;;;;0.35;0.30;;;;;;;;;;1805109;78;26259;-36
2022/01/16 09:01:39;;;;;;;1.87;0.53;;;;;;;;;;1794951;78;26272;-28
2022/01/16 09:04:06;;;;;;;0.72;0.55;;;;;;;;;;1790852;78;26538;-28
2022/01/16 09:06:34;;;;;;;4.95;0.70;;;;;;;;;;1805969;78;26370;-30
2022/01/16 09:09:01;;;;;;;2.42;0.53;;;;;;;;;;1802253;78;26267;-30
2022/01/16 09:11:28;;;;;;;2.02;0.80;;;;;;;;;;1785298;78;26299;-29
2022/01/16 09:13:58;;;;;;;2.37;0.53;;;;;;;;;;1797960;78;26311;-33
2022/01/16 09:16:26;;;;;;;1.77;0.50;;;;;;;;;;1807320;78;26276;-34
2022/01/16 09:18:53;;;;;;;3.92;0.40;;;;;;;;;;1807728;78;27459;-29
2022/01/16 09:21:20;;;;;;;0.50;0.50;;;;;;;;;;1801856;78;26245;-29
2022/01/16 09:23:49;;;;;;;2.10;0.75;;;;;;;;;;1798722;78;26304;-32
2022/01/16 09:26:17;;;;;;;0.78;0.60;;;;;;;;;;1796206;78;26755;-34
2022/01/16 09:28:44;;;;;;;1.75;0.55;;;;;;;;;;1798504;78;26319;-28
2022/01/16 09:31:13;;;;;;;7.05;0.60;;;;;;;;;;1798497;78;26676;-30
2022/01/16 09:33:40;;;;;;;0.88;0.50;;;;;;;;;;1803913;78;26402;-28
2022/01/16 09:36:09;;;;;;;1.27;0.60;;;;;;;;;;1803578;78;26251;-35
2022/01/16 09:38:37;;;;;;;0.57;0.42;;;;;;;;;;1803089;78;26712;-30
2022/01/16 09:41:05;;;;;;;0.45;0.45;;;;;;;;;;1769910;78;26236;-27
2022/01/16 09:43:34;;;;;;;1.07;0.50;;;;;;;;;;1766039;78;26333;-34
2022/01/16 09:46:02;;;;;;;1.02;0.60;;;;;;;;;;1800993;79;26345;-31
2022/01/16 09:48:29;;;;;;;2.25;0.42;;;;;;;;;;1801104;78;26298;-28
2022/01/16 09:50:56;;;;;;;0.60;0.60;;;;;;;;;;1821636;78;26797;-29
2022/01/16 09:53:24;;;;;;;3.72;0.95;;;;;;;;;;1829194;77;26378;-34
2022/01/16 09:55:52;;;;;;;2.33;0.55;;;;;;;;;;1820253;78;27540;-27
2022/01/16 09:58:20;;;;;;;1.47;0.60;;;;;;;;;;1828598;78;26332;-30
2022/01/16 10:00:48;;;;;;;0.60;0.60;;;;;;;;;;1827720;77;26282;-29
2022/01/16 10:03:34;;;;;;;0.93;0.60;;;;;;;;;;1805535;77;26278;-29
2022/01/16 10:06:20;;;;;;;2.90;0.40;;;;;;;;;;1821146;77;26263;-30
2022/01/16 10:08:48;;;;;;;0.50;0.50;;;;;;;;;;1819603;78;26896;-31
2022/01/16 10:11:39;;;;;;;0.40;0.40;;;;;;;;;;1812480;77;26346;-33
2022/01/16 10:16:45;;;;;;;0.85;0.60;;;;;;;;;;1793913;78;26805;-31
2022/01/16 10:19:20;;;;;;;3.22;0.75;;;;;;;;;;1809041;77;26380;-30
2022/01/16 10:21:49;;;;;;;0.37;0.37;;;;;;;;;;1829534;77;26805;-34
2022/01/16 10:24:17;;;;;;;1.05;0.50;;;;;;;;;;1825386;77;26283;-30
2022/01/16 10:26:45;;;;;;;2.17;0.35;;;;;;;;;;1831145;77;26290;-35
2022/01/16 10:29:17;;;;;;;0.42;0.42;;;;;;;;;;1816260;77;26743;-31
2022/01/16 10:31:44;;;;;;;0.40;0.40;;;;;;;;;;1819192;77;26278;-31
2022/01/16 10:34:25;;;;;;;0.40;0.40;;;;;;;;;;1815099;77;26335;-30
2022/01/16 10:36:53;;;;;;;0.40;0.40;;;;;;;;;;1804064;77;26330;-28
2022/01/16 10:39:20;;;;;;;0.72;0.40;;;;;;;;;;1827827;77;26282;-33
2022/01/16 10:41:50;;;;;;;0.33;0.33;;;;;;;;;;1825748;77;26271;-28
2022/01/16 10:44:31;;;;;;;0.82;0.40;;;;;;;;;;1814129;77;26366;-34
2022/01/16 10:46:58;;;;;;;0.23;0.23;;;;;;;;;;1810286;77;26301;-28
2022/01/16 10:49:26;;;;;;;0.30;0.30;;;;;;;;;;1812258;77;26216;-31
2022/01/16 10:52:04;;;;;;;0.28;0.25;;;;;;;;;;1798647;78;26734;-32
2022/01/16 10:54:32;;;;;;;0.50;0.50;;;;;;;;;;1792488;78;26302;-33
2022/01/16 10:57:01;;;;;;;0.30;0.30;;;;;;;;;;1803688;78;26267;-28
2022/01/16 10:59:29;;;;;;;0.20;0.20;;;;;;;;;;1792986;78;26365;-34
2022/01/16 11:02:09;;;;;;;0.70;0.40;;;;;;;;;;1793822;78;26299;-31
2022/01/16 11:04:36;;;;;;;0.45;0.40;;;;;;;;;;1796151;78;26401;-37
2022/01/16 11:07:05;;;;;;;0.20;0.20;;;;;;;;;;1809272;78;26334;-32
2022/01/16 11:09:33;;;;;;;0.28;0.28;;;;;;;;;;1813134;78;26366;-30
2022/01/16 11:12:00;;;;;;;0.17;0.17;;;;;;;;;;1806007;78;26631;-31
2022/01/16 11:14:28;;;;;;;0.30;0.30;;;;;;;;;;1803339;78;26310;-34
2022/01/16 11:16:56;;;;;;;0.20;0.20;;;;;;;;;;1803292;78;26346;-28
2022/01/16 11:19:26;;;;;;;0.20;0.20;;;;;;;;;;1804875;78;26751;-33
2022/01/16 11:21:57;;;;;;;1.87;0.25;;;;;;;;;;1801698;78;26349;-31
2022/01/16 11:24:35;;;;;;;0.10;0.10;;;;;;;;;;1797005;78;26776;-33
2022/01/16 11:26:52;;;;;;;0.30;0.30;;;;;;;;;;1790412;78;26693;-29
2022/01/16 11:29:19;;;;;;;0.30;0.30;;;;;;;;;;1801646;78;26323;-32
2022/01/16 11:31:49;;;;;;;0.40;0.40;;;;;;;;;;1805407;78;26366;-28
2022/01/16 11:34:16;;;;;;;0.20;0.20;;;;;;;;;;1797873;78;26990;-33
2022/01/16 11:36:43;;;;;;;0.30;0.30;;;;;;;;;;1805882;78;26775;-37
2022/01/16 11:39:12;;;;;;;0.47;0.10;;;;;;;;;;1798975;78;26335;-30
2022/01/16 11:41:54;;;;;;;0.20;0.20;;;;;;;;;;1794100;78;27527;-28
2022/01/16 11:44:23;;;;;;;0.20;0.20;;;;;;;;;;1801711;78;26358;-31
2022/01/16 11:46:52;;;;;;;0.23;0.23;;;;;;;;;;1803364;78;26256;-28
2022/01/16 11:49:21;;;;;;;0.13;0.13;;;;;;;;;;1802358;78;26218;-32
2022/01/16 11:51:51;;;;;;;0.20;0.20;;;;;;;;;;1805392;78;26304;-28
2022/01/16 11:54:25;;;;;;;0.17;0.17;;;;;;;;;;1803195;78;26697;-36
2022/01/16 11:56:54;;;;;;;0.13;0.13;;;;;;;;;;1807426;78;27047;-29
2022/01/16 11:59:24;;;;;;;0.20;0.20;;;;;;;;;;1785543;80;26317;-32
2022/01/16 12:01:53;;;;;;;4.30;0.23;;;;;;;;;;1802564;78;27438;-36
2022/01/16 12:04:31;;;;;;;0.30;0.30;;;;;;;;;;1799597;78;26221;-36
2022/01/16 12:07:16;;;;;;;0.20;0.20;;;;;;;;;;1804536;78;26784;-33
2022/01/16 12:12:15;;;;;;;1.35;0.20;;;;;;;;;;1807748;78;26793;-31
2022/01/16 12:14:59;;;;;;;0.30;0.30;;;;;;;;;;1803997;78;26948;-32
2022/01/16 12:17:27;;;;;;;0.30;0.30;;;;;;;;;;1796688;78;26582;-34
2022/01/16 12:19:55;;;;;;;0.23;0.23;;;;;;;;;;1801014;78;26386;-31
2022/01/16 12:22:24;;;;;;;0.35;0.35;;;;;;;;;;1803417;78;26283;-37
2022/01/16 12:24:53;;;;;;;2.52;0.50;;;;;;;;;;1792396;78;26292;-32
2022/01/16 12:27:24;;;;;;;0.37;0.30;;;;;;;;;;1797421;78;26283;-30
2022/01/16 12:30:09;;;;;;;0.23;0.23;;;;;;;;;;1801073;78;26279;-34
2022/01/16 12:32:50;;;;;;;0.50;0.40;;;;;;;;;;1800831;78;26346;-36
2022/01/16 12:35:35;;;;;;;0.75;0.40;;;;;;;;;;1799995;78;26290;-34
2022/01/16 12:38:09;;;;;;;2.08;0.47;;;;;;;;;;1797056;78;26307;-30
2022/01/16 12:40:43;;;;;;;3.00;0.50;;;;;;;;;;1804385;78;26282;-35
2022/01/16 12:43:16;;;;;;;0.40;0.40;;;;;;;;;;1794498;78;26279;-37
2022/01/16 12:45:41;;;;;;;0.40;0.33;;;;;;;;;;1797243;78;26726;-32
2022/01/16 12:48:09;;;;;;;0.40;0.33;;;;;;;;;;1798409;78;26366;-37
2022/01/16 12:50:37;;;;;;;0.20;0.20;;;;;;;;;;1792552;78;26347;-37
2022/01/16 12:53:05;;;;;;;0.53;0.30;;;;;;;;;;1816430;77;26300;-41
2022/01/16 12:55:33;;;;;;;0.85;0.40;;;;;;;;;;1823142;77;26275;-36
2022/01/16 12:58:16;;;;;;;2.15;0.30;;;;;;;;;;1817262;77;26284;-38
2022/01/16 13:01:00;;;;;;;0.28;0.28;;;;;;;;;;1815199;77;26298;-30
2022/01/16 13:03:29;;;;;;;1.37;0.30;;;;;;;;;;1816316;77;26290;-38
2022/01/16 13:06:14;;;;;;;0.47;0.28;;;;;;;;;;1817696;77;26254;-31
2022/01/16 13:08:49;;;;;;;1.65;0.62;;;;;;;;;;1819889;77;26322;-41
2022/01/16 13:11:16;;;;;;;0.65;0.28;;;;;;;;;;1796107;77;26623;-32
2022/01/16 13:13:44;;;;;;;1.42;0.45;;;;;;;;;;1826698;77;26403;-29
2022/01/16 13:16:21;;;;;;;0.30;0.30;;;;;;;;;;1815285;77;26377;-32
2022/01/16 13:18:58;;;;;;;3.52;0.45;;;;;;;;;;1821693;77;26323;-29
2022/01/16 13:21:33;;;;;;;0.40;0.40;;;;;;;;;;1822587;77;26275;-31
2022/01/16 13:23:54;;;;;;;2.15;0.50;;;;;;;;;;1813122;77;26301;-28
2022/01/16 13:26:26;;;;;;;1.07;0.25;;;;;;;;;;1813796;77;26341;-32
2022/01/16 13:29:00;;;;;;;3.70;0.30;;;;;;;;;;1813487;77;26598;-28
2022/01/16 13:31:27;;;;;;;3.45;0.50;;;;;;;;;;1812485;77;26380;-35
2022/01/16 13:34:11;;;;;;;1.70;0.50;;;;;;;;;;1817269;77;26355;-30
2022/01/16 13:36:40;;;;;;;1.27;0.50;;;;;;;;;;1820441;77;26345;-32
2022/01/16 13:39:07;;;;;;;0.68;0.20;;;;;;;;;;1814689;77;26577;-34
2022/01/16 13:41:36;;;;;;;0.70;0.55;;;;;;;;;;1819899;77;26321;-31
2022/01/16 13:44:06;;;;;;;0.82;0.40;;;;;;;;;;1817354;77;26863;-30
2022/01/16 13:46:33;;;;;;;2.47;0.40;;;;;;;;;;1812312;77;26287;-33
2022/01/16 13:49:01;;;;;;;2.22;0.40;;;;;;;;;;1819177;77;26356;-27
2022/01/16 13:51:30;;;;;;;0.70;0.40;;;;;;;;;;1814833;77;26325;-30
2022/01/16 13:53:59;;;;;;;1.35;0.28;;;;;;;;;;1804052;78;26279;-32
2022/01/16 13:56:29;;;;;;;0.50;0.50;;;;;;;;;;1801019;78;26362;-31
2022/01/16 13:58:59;;;;;;;5.30;0.47;;;;;;;;;;1801195;78;26331;-33
2022/01/16 14:01:39;;;;;;;4.00;0.40;;;;;;;;;;1801561;78;26321;-33
2022/01/16 14:04:04;;;;;;;0.42;0.40;;;;;;;;;;1798197;78;26312;-28
2022/01/16 14:06:33;;;;;;;2.70;0.50;;;;;;;;;;1805531;78;26264;-35
2022/01/16 14:09:01;;;;;;;1.10;0.50;;;;;;;;;;1805684;78;26208;-27
2022/01/16 14:11:30;;;;;;;1.42;0.60;;;;;;;;;;1806242;78;26299;-30
2022/01/16 14:13:58;;;;;;;0.37;0.37;;;;;;;;;;1798137;78;26248;-33
2022/01/16 14:16:30;;;;;;;0.95;0.37;;;;;;;;;;1799843;78;26309;-34
2022/01/16 14:24:07;;;;;;;1.05;0.50;;;;;;;;;;1804908;78;25298;-28
2022/01/16 14:26:36;;;;;;;0.50;0.33;;;;;;;;;;1806549;78;26317;-35
2022/01/16 14:29:03;;;;;;;0.37;0.30;;;;;;;;;;1799711;78;26272;-41
2022/01/16 14:31:30;;;;;;;0.40;0.40;;;;;;;;;;1800717;78;26264;-32
2022/01/16 14:33:58;;;;;;;0.30;0.30;;;;;;;;;;1807088;78;26213;-32
2022/01/16 14:36:25;;;;;;;0.55;0.55;;;;;;;;;;1804433;78;26922;-30
2022/01/16 14:38:52;;;;;;;0.33;0.33;;;;;;;;;;1803579;78;28761;-29
2022/01/16 14:41:22;;;;;;;0.30;0.30;;;;;;;;;;1800902;78;26960;-31
2022/01/16 14:43:54;;;;;;;2.77;0.60;;;;;;;;;;1802175;78;26279;-37
2022/01/16 14:46:25;;;;;;;0.45;0.40;;;;;;;;;;1799845;78;26378;-31
2022/01/16 14:48:53;;;;;;;0.30;0.30;;;;;;;;;;1804468;78;26398;-33
2022/01/16 14:51:20;;;;;;;0.30;0.30;;;;;;;;;;1805332;78;26283;-34
2022/01/16 14:53:48;;;;;;;0.90;0.50;;;;;;;;;;1798212;78;28238;-32
2022/01/16 14:56:15;;;;;;;0.80;0.40;;;;;;;;;;1802165;78;26330;-27
2022/01/16 14:58:43;;;;;;;0.20;0.20;;;;;;;;;;1807599;78;26280;-28
2022/01/16 15:01:12;;;;;;;0.20;0.20;;;;;;;;;;1803384;78;26216;-26
2022/01/16 15:03:39;;;;;;;1.70;0.33;;;;;;;;;;1801628;78;26252;-25
2022/01/16 15:06:07;;;;;;;1.47;0.30;;;;;;;;;;1804640;78;26427;-28
2022/01/16 15:08:40;;;;;;;0.30;0.30;;;;;;;;;;1807255;78;26574;-33
2022/01/16 15:11:08;;;;;;;0.33;0.33;;;;;;;;;;1803129;78;26204;-32
2022/01/16 15:13:35;;;;;;;0.37;0.20;;;;;;;;;;1807414;78;26359;-44
2022/01/16 15:16:03;;;;;;;1.10;0.30;;;;;;;;;;1792568;78;28269;-31
2022/01/16 15:18:31;;;;;;;1.87;0.30;;;;;;;;;;1795894;78;26346;-27
2022/01/16 15:21:00;;;;;;;1.07;0.40;;;;;;;;;;1804254;78;26941;-27
2022/01/16 15:23:28;;;;;;;0.65;0.30;;;;;;;;;;1804877;78;26717;-38
2022/01/16 15:25:56;;;;;;;0.85;0.30;;;;;;;;;;1803975;78;26305;-32
2022/01/16 15:28:28;;;;;;;11.50;0.50;;;;;;;;;;1808279;78;26244;-29
2022/01/16 15:30:52;;;;;;;0.80;0.30;;;;;;;;;;1795766;78;28283;-28
2022/01/16 15:33:20;;;;;;;0.30;0.30;;;;;;;;;;1802084;78;26257;-33
2022/01/16 15:35:47;;;;;;;0.20;0.20;;;;;;;;;;1805343;78;26415;-32
2022/01/16 15:38:15;;;;;;;0.15;0.15;;;;;;;;;;1799016;78;26286;-30
2022/01/16 15:40:42;;;;;;;0.30;0.30;;;;;;;;;;1808981;78;26311;-33